sensor_id;sensor_type;location;lat;lon;timestamp;P1;durP1;ratioP1;P2;durP2;ratioP2
2011;SDS011;1009;51.436;6.972;2023-03-03T00:01:30;108.77;;;53.70;;
2011;SDS011;1009;51.436;6.972;2023-03-03T00:03:57;100.00;;;53.20;;
2011;SDS011;1009;51.436;6.972;2023-03-03T00:06:24;107.00;;;53.60;;
2011;SDS011;1009;51.436;6.972;2023-03-03T00:08:51;106.17;;;54.20;;
2011;SDS011;1009;51.436;6.972;2023-03-03T00:11:19;107.70;;;53.03;;
2011;SDS011;1009;51.436;6.972;2023-03-03T00:13:47;116.60;;;58.20;;
2011;SDS011;1009;51.436;6.972;2023-03-03T00:16:16;110.97;;;55.43;;
2011;SDS011;1009;51.436;6.972;2023-03-03T00:18:48;121.60;;;56.13;;
2011;SDS011;1009;51.436;6.972;2023-03-03T00:21:22;118.00;;;55.10;;
2011;SDS011;1009;51.436;6.972;2023-03-03T00:23:53;121.00;;;58.07;;
2011;SDS011;1009;51.436;6.972;2023-03-03T00:26:22;114.87;;;55.00;;
2011;SDS011;1009;51.436;6.972;2023-03-03T00:28:54;123.93;;;55.87;;
2011;SDS011;1009;51.436;6.972;2023-03-03T00:31:22;114.20;;;56.50;;
2011;SDS011;1009;51.436;6.972;2023-03-03T00:33:54;121.97;;;57.60;;
2011;SDS011;1009;51.436;6.972;2023-03-03T00:36:24;105.03;;;52.00;;
2011;SDS011;1009;51.436;6.972;2023-03-03T00:38:57;107.67;;;50.13;;
2011;SDS011;1009;51.436;6.972;2023-03-03T00:41:38;96.90;;;51.23;;
2011;SDS011;1009;51.436;6.972;2023-03-03T00:44:17;95.23;;;51.10;;
2011;SDS011;1009;51.436;6.972;2023-03-03T00:47:13;101.00;;;47.97;;
2011;SDS011;1009;51.436;6.972;2023-03-03T00:49:51;94.20;;;48.20;;
2011;SDS011;1009;51.436;6.972;2023-03-03T00:52:18;91.57;;;46.43;;
2011;SDS011;1009;51.436;6.972;2023-03-03T00:54:45;91.43;;;47.27;;
2011;SDS011;1009;51.436;6.972;2023-03-03T00:57:14;92.60;;;49.53;;
2011;SDS011;1009;51.436;6.972;2023-03-03T00:59:40;102.60;;;52.77;;
2011;SDS011;1009;51.436;6.972;2023-03-03T01:02:07;114.57;;;56.33;;
2011;SDS011;1009;51.436;6.972;2023-03-03T01:04:34;113.13;;;56.60;;
2011;SDS011;1009;51.436;6.972;2023-03-03T01:07:00;114.43;;;58.43;;
2011;SDS011;1009;51.436;6.972;2023-03-03T01:09:27;110.10;;;54.20;;
2011;SDS011;1009;51.436;6.972;2023-03-03T01:11:54;89.00;;;48.80;;
2011;SDS011;1009;51.436;6.972;2023-03-03T01:14:22;83.50;;;46.37;;
2011;SDS011;1009;51.436;6.972;2023-03-03T01:16:49;81.40;;;43.80;;
2011;SDS011;1009;51.436;6.972;2023-03-03T01:19:16;86.17;;;45.00;;
2011;SDS011;1009;51.436;6.972;2023-03-03T01:21:42;81.23;;;43.70;;
2011;SDS011;1009;51.436;6.972;2023-03-03T01:24:09;88.93;;;46.70;;
2011;SDS011;1009;51.436;6.972;2023-03-03T01:26:36;91.70;;;47.33;;
2011;SDS011;1009;51.436;6.972;2023-03-03T01:29:03;94.37;;;48.20;;
2011;SDS011;1009;51.436;6.972;2023-03-03T01:31:31;96.03;;;48.80;;
2011;SDS011;1009;51.436;6.972;2023-03-03T01:33:57;105.17;;;52.47;;
2011;SDS011;1009;51.436;6.972;2023-03-03T01:36:25;119.43;;;54.90;;
2011;SDS011;1009;51.436;6.972;2023-03-03T01:38:53;115.57;;;53.53;;
2011;SDS011;1009;51.436;6.972;2023-03-03T01:41:20;112.70;;;51.67;;
2011;SDS011;1009;51.436;6.972;2023-03-03T01:43:48;110.73;;;53.30;;
2011;SDS011;1009;51.436;6.972;2023-03-03T01:46:34;112.33;;;51.07;;
2011;SDS011;1009;51.436;6.972;2023-03-03T01:49:10;97.87;;;48.00;;
2011;SDS011;1009;51.436;6.972;2023-03-03T01:51:42;108.63;;;51.90;;
2011;SDS011;1009;51.436;6.972;2023-03-03T01:54:13;89.80;;;46.63;;
2011;SDS011;1009;51.436;6.972;2023-03-03T01:56:44;95.03;;;48.17;;
2011;SDS011;1009;51.436;6.972;2023-03-03T01:59:12;77.33;;;44.70;;
2011;SDS011;1009;51.436;6.972;2023-03-03T02:01:43;85.27;;;45.30;;
2011;SDS011;1009;51.436;6.972;2023-03-03T02:04:12;88.30;;;46.27;;
2011;SDS011;1009;51.436;6.972;2023-03-03T02:06:39;94.20;;;47.13;;
2011;SDS011;1009;51.436;6.972;2023-03-03T02:09:10;92.57;;;46.47;;
2011;SDS011;1009;51.436;6.972;2023-03-03T02:11:41;96.73;;;45.73;;
2011;SDS011;1009;51.436;6.972;2023-03-03T02:14:10;90.23;;;45.30;;
2011;SDS011;1009;51.436;6.972;2023-03-03T02:16:38;92.33;;;47.77;;
2011;SDS011;1009;51.436;6.972;2023-03-03T02:19:08;102.53;;;51.07;;
2011;SDS011;1009;51.436;6.972;2023-03-03T02:21:43;110.83;;;52.23;;
2011;SDS011;1009;51.436;6.972;2023-03-03T02:24:12;103.53;;;52.60;;
2011;SDS011;1009;51.436;6.972;2023-03-03T02:26:44;96.03;;;50.27;;
2011;SDS011;1009;51.436;6.972;2023-03-03T02:29:11;100.30;;;48.97;;
2011;SDS011;1009;51.436;6.972;2023-03-03T02:31:38;104.47;;;51.90;;
2011;SDS011;1009;51.436;6.972;2023-03-03T02:34:04;93.70;;;49.20;;
2011;SDS011;1009;51.436;6.972;2023-03-03T02:36:32;91.23;;;45.17;;
2011;SDS011;1009;51.436;6.972;2023-03-03T02:39:02;84.70;;;42.30;;
2011;SDS011;1009;51.436;6.972;2023-03-03T02:41:32;105.77;;;48.50;;
2011;SDS011;1009;51.436;6.972;2023-03-03T02:44:05;97.53;;;47.97;;
2011;SDS011;1009;51.436;6.972;2023-03-03T02:46:34;93.97;;;48.33;;
2011;SDS011;1009;51.436;6.972;2023-03-03T02:49:01;88.87;;;45.27;;
2011;SDS011;1009;51.436;6.972;2023-03-03T02:51:28;89.57;;;46.27;;
2011;SDS011;1009;51.436;6.972;2023-03-03T02:53:55;81.93;;;44.57;;
2011;SDS011;1009;51.436;6.972;2023-03-03T02:56:22;93.73;;;47.57;;
2011;SDS011;1009;51.436;6.972;2023-03-03T02:58:49;95.73;;;48.27;;
2011;SDS011;1009;51.436;6.972;2023-03-03T03:01:17;104.00;;;50.70;;
2011;SDS011;1009;51.436;6.972;2023-03-03T03:03:44;113.27;;;52.90;;
2011;SDS011;1009;51.436;6.972;2023-03-03T03:06:11;111.27;;;54.87;;
2011;SDS011;1009;51.436;6.972;2023-03-03T03:08:37;123.30;;;55.87;;
2011;SDS011;1009;51.436;6.972;2023-03-03T03:11:04;105.77;;;52.20;;
2011;SDS011;1009;51.436;6.972;2023-03-03T03:13:31;110.87;;;52.97;;
2011;SDS011;1009;51.436;6.972;2023-03-03T03:15:59;115.03;;;53.73;;
2011;SDS011;1009;51.436;6.972;2023-03-03T03:18:27;126.40;;;56.50;;
2011;SDS011;1009;51.436;6.972;2023-03-03T03:20:54;126.13;;;60.70;;
2011;SDS011;1009;51.436;6.972;2023-03-03T03:23:21;109.90;;;54.37;;
2011;SDS011;1009;51.436;6.972;2023-03-03T03:25:47;110.57;;;54.00;;
2011;SDS011;1009;51.436;6.972;2023-03-03T03:28:15;104.27;;;52.07;;
2011;SDS011;1009;51.436;6.972;2023-03-03T03:30:43;108.30;;;51.50;;
2011;SDS011;1009;51.436;6.972;2023-03-03T03:33:10;106.00;;;50.40;;
2011;SDS011;1009;51.436;6.972;2023-03-03T03:35:39;91.90;;;44.17;;
2011;SDS011;1009;51.436;6.972;2023-03-03T03:38:09;87.60;;;46.77;;
2011;SDS011;1009;51.436;6.972;2023-03-03T03:40:36;91.23;;;45.67;;
2011;SDS011;1009;51.436;6.972;2023-03-03T03:43:03;94.70;;;45.57;;
2011;SDS011;1009;51.436;6.972;2023-03-03T03:45:30;85.30;;;45.70;;
2011;SDS011;1009;51.436;6.972;2023-03-03T03:47:57;101.60;;;50.47;;
2011;SDS011;1009;51.436;6.972;2023-03-03T03:50:24;88.77;;;44.97;;
2011;SDS011;1009;51.436;6.972;2023-03-03T03:52:52;86.73;;;45.43;;
2011;SDS011;1009;51.436;6.972;2023-03-03T03:55:19;87.63;;;44.17;;
2011;SDS011;1009;51.436;6.972;2023-03-03T03:57:47;89.50;;;45.87;;
2011;SDS011;1009;51.436;6.972;2023-03-03T04:00:13;92.37;;;43.87;;
2011;SDS011;1009;51.436;6.972;2023-03-03T04:02:41;86.87;;;44.50;;
2011;SDS011;1009;51.436;6.972;2023-03-03T04:05:08;93.63;;;44.57;;
2011;SDS011;1009;51.436;6.972;2023-03-03T04:07:35;84.17;;;41.70;;
2011;SDS011;1009;51.436;6.972;2023-03-03T04:10:03;84.43;;;43.73;;
2011;SDS011;1009;51.436;6.972;2023-03-03T04:12:30;77.97;;;43.07;;
2011;SDS011;1009;51.436;6.972;2023-03-03T04:15:02;82.40;;;40.47;;
2011;SDS011;1009;51.436;6.972;2023-03-03T04:17:30;79.23;;;39.90;;
2011;SDS011;1009;51.436;6.972;2023-03-03T04:19:56;83.53;;;39.93;;
2011;SDS011;1009;51.436;6.972;2023-03-03T04:22:23;83.37;;;41.20;;
2011;SDS011;1009;51.436;6.972;2023-03-03T04:24:50;82.00;;;42.63;;
2011;SDS011;1009;51.436;6.972;2023-03-03T04:27:18;89.97;;;44.50;;
2011;SDS011;1009;51.436;6.972;2023-03-03T04:29:44;95.20;;;46.53;;
2011;SDS011;1009;51.436;6.972;2023-03-03T04:32:11;87.07;;;44.23;;
2011;SDS011;1009;51.436;6.972;2023-03-03T04:34:38;120.33;;;51.10;;
2011;SDS011;1009;51.436;6.972;2023-03-03T04:37:05;120.03;;;49.87;;
2011;SDS011;1009;51.436;6.972;2023-03-03T04:39:31;96.90;;;49.50;;
2011;SDS011;1009;51.436;6.972;2023-03-03T04:41:58;100.17;;;48.57;;
2011;SDS011;1009;51.436;6.972;2023-03-03T04:44:26;100.87;;;47.40;;
2011;SDS011;1009;51.436;6.972;2023-03-03T04:46:53;94.57;;;46.00;;
2011;SDS011;1009;51.436;6.972;2023-03-03T04:49:19;85.23;;;44.27;;
2011;SDS011;1009;51.436;6.972;2023-03-03T04:51:46;74.87;;;39.20;;
2011;SDS011;1009;51.436;6.972;2023-03-03T04:54:13;72.67;;;38.40;;
2011;SDS011;1009;51.436;6.972;2023-03-03T04:56:39;76.80;;;39.93;;
2011;SDS011;1009;51.436;6.972;2023-03-03T04:59:06;66.47;;;36.30;;
2011;SDS011;1009;51.436;6.972;2023-03-03T05:01:34;67.33;;;38.00;;
2011;SDS011;1009;51.436;6.972;2023-03-03T05:04:01;69.47;;;37.40;;
2011;SDS011;1009;51.436;6.972;2023-03-03T05:06:28;74.10;;;37.67;;
2011;SDS011;1009;51.436;6.972;2023-03-03T05:08:55;77.53;;;39.33;;
2011;SDS011;1009;51.436;6.972;2023-03-03T05:11:21;92.20;;;44.30;;
2011;SDS011;1009;51.436;6.972;2023-03-03T05:13:48;85.47;;;42.30;;
2011;SDS011;1009;51.436;6.972;2023-03-03T05:16:15;89.97;;;43.30;;
2011;SDS011;1009;51.436;6.972;2023-03-03T05:18:43;85.43;;;43.07;;
2011;SDS011;1009;51.436;6.972;2023-03-03T05:21:10;70.60;;;39.37;;
2011;SDS011;1009;51.436;6.972;2023-03-03T05:23:37;76.20;;;39.17;;
2011;SDS011;1009;51.436;6.972;2023-03-03T05:26:04;64.97;;;36.17;;
2011;SDS011;1009;51.436;6.972;2023-03-03T05:28:30;70.67;;;37.87;;
2011;SDS011;1009;51.436;6.972;2023-03-03T05:30:57;78.77;;;41.30;;
2011;SDS011;1009;51.436;6.972;2023-03-03T05:33:24;75.30;;;38.90;;
2011;SDS011;1009;51.436;6.972;2023-03-03T05:35:54;82.27;;;41.40;;
2011;SDS011;1009;51.436;6.972;2023-03-03T05:38:22;82.83;;;43.07;;
2011;SDS011;1009;51.436;6.972;2023-03-03T05:40:49;83.70;;;41.13;;
2011;SDS011;1009;51.436;6.972;2023-03-03T05:43:16;88.77;;;41.70;;
2011;SDS011;1009;51.436;6.972;2023-03-03T05:45:42;76.07;;;39.50;;
2011;SDS011;1009;51.436;6.972;2023-03-03T05:48:09;83.30;;;42.50;;
2011;SDS011;1009;51.436;6.972;2023-03-03T05:50:36;84.00;;;41.67;;
2011;SDS011;1009;51.436;6.972;2023-03-03T05:53:04;107.33;;;47.97;;
2011;SDS011;1009;51.436;6.972;2023-03-03T05:55:31;102.70;;;46.90;;
2011;SDS011;1009;51.436;6.972;2023-03-03T05:57:58;104.00;;;46.97;;
2011;SDS011;1009;51.436;6.972;2023-03-03T06:00:24;104.37;;;49.73;;
2011;SDS011;1009;51.436;6.972;2023-03-03T06:02:51;109.60;;;49.77;;
2011;SDS011;1009;51.436;6.972;2023-03-03T06:05:18;111.23;;;50.80;;
2011;SDS011;1009;51.436;6.972;2023-03-03T06:07:44;110.10;;;48.60;;
2011;SDS011;1009;51.436;6.972;2023-03-03T06:10:12;105.07;;;47.03;;
2011;SDS011;1009;51.436;6.972;2023-03-03T06:12:39;103.50;;;49.93;;
2011;SDS011;1009;51.436;6.972;2023-03-03T06:15:06;110.20;;;49.40;;
2011;SDS011;1009;51.436;6.972;2023-03-03T06:17:34;111.47;;;48.70;;
2011;SDS011;1009;51.436;6.972;2023-03-03T06:20:01;101.77;;;47.03;;
2011;SDS011;1009;51.436;6.972;2023-03-03T06:22:28;80.20;;;41.33;;
2011;SDS011;1009;51.436;6.972;2023-03-03T06:24:55;77.47;;;40.87;;
2011;SDS011;1009;51.436;6.972;2023-03-03T06:27:23;74.83;;;38.50;;
2011;SDS011;1009;51.436;6.972;2023-03-03T06:29:50;79.23;;;40.07;;
2011;SDS011;1009;51.436;6.972;2023-03-03T06:32:17;78.13;;;40.73;;
2011;SDS011;1009;51.436;6.972;2023-03-03T06:34:43;82.33;;;42.60;;
2011;SDS011;1009;51.436;6.972;2023-03-03T06:37:10;76.00;;;40.90;;
2011;SDS011;1009;51.436;6.972;2023-03-03T06:39:37;83.07;;;41.60;;
2011;SDS011;1009;51.436;6.972;2023-03-03T06:42:04;94.83;;;44.30;;
2011;SDS011;1009;51.436;6.972;2023-03-03T06:44:32;95.23;;;46.27;;
2011;SDS011;1009;51.436;6.972;2023-03-03T06:46:59;99.67;;;47.90;;
2011;SDS011;1009;51.436;6.972;2023-03-03T06:49:26;114.10;;;51.83;;
2011;SDS011;1009;51.436;6.972;2023-03-03T06:51:53;96.47;;;43.23;;
2011;SDS011;1009;51.436;6.972;2023-03-03T06:54:20;106.57;;;45.77;;
2011;SDS011;1009;51.436;6.972;2023-03-03T06:56:53;96.20;;;45.80;;
2011;SDS011;1009;51.436;6.972;2023-03-03T06:59:25;100.43;;;45.80;;
2011;SDS011;1009;51.436;6.972;2023-03-03T07:01:54;87.50;;;43.50;;
2011;SDS011;1009;51.436;6.972;2023-03-03T07:04:23;109.80;;;48.70;;
2011;SDS011;1009;51.436;6.972;2023-03-03T07:06:54;110.00;;;50.20;;
2011;SDS011;1009;51.436;6.972;2023-03-03T07:09:23;120.80;;;51.43;;
2011;SDS011;1009;51.436;6.972;2023-03-03T07:11:51;112.93;;;49.80;;
2011;SDS011;1009;51.436;6.972;2023-03-03T07:14:19;107.73;;;48.83;;
2011;SDS011;1009;51.436;6.972;2023-03-03T07:16:50;113.00;;;49.50;;
2011;SDS011;1009;51.436;6.972;2023-03-03T07:19:29;111.40;;;48.03;;
2011;SDS011;1009;51.436;6.972;2023-03-03T07:21:59;117.30;;;51.80;;
2011;SDS011;1009;51.436;6.972;2023-03-03T07:24:31;115.03;;;51.83;;
2011;SDS011;1009;51.436;6.972;2023-03-03T07:26:58;110.43;;;46.70;;
2011;SDS011;1009;51.436;6.972;2023-03-03T07:29:31;99.20;;;44.90;;
2011;SDS011;1009;51.436;6.972;2023-03-03T07:31:59;106.40;;;48.43;;
2011;SDS011;1009;51.436;6.972;2023-03-03T07:34:34;105.63;;;46.83;;
2011;SDS011;1009;51.436;6.972;2023-03-03T07:37:03;105.13;;;48.13;;
2011;SDS011;1009;51.436;6.972;2023-03-03T07:39:39;96.80;;;44.17;;
2011;SDS011;1009;51.436;6.972;2023-03-03T07:42:14;92.67;;;44.37;;
2011;SDS011;1009;51.436;6.972;2023-03-03T07:44:45;88.80;;;42.90;;
2011;SDS011;1009;51.436;6.972;2023-03-03T07:47:19;93.70;;;42.57;;
2011;SDS011;1009;51.436;6.972;2023-03-03T07:49:50;101.87;;;44.23;;
2011;SDS011;1009;51.436;6.972;2023-03-03T07:52:26;80.93;;;40.57;;
2011;SDS011;1009;51.436;6.972;2023-03-03T07:54:56;87.77;;;42.37;;
2011;SDS011;1009;51.436;6.972;2023-03-03T07:57:26;110.87;;;47.07;;
2011;SDS011;1009;51.436;6.972;2023-03-03T07:59:58;98.70;;;44.07;;
2011;SDS011;1009;51.436;6.972;2023-03-03T08:05:26;97.60;;;41.90;;
2011;SDS011;1009;51.436;6.972;2023-03-03T08:07:57;95.77;;;44.33;;
2011;SDS011;1009;51.436;6.972;2023-03-03T08:10:39;86.73;;;43.43;;
2011;SDS011;1009;51.436;6.972;2023-03-03T08:13:13;92.23;;;41.13;;
2011;SDS011;1009;51.436;6.972;2023-03-03T08:15:43;87.07;;;41.73;;
2011;SDS011;1009;51.436;6.972;2023-03-03T08:18:15;96.47;;;44.40;;
2011;SDS011;1009;51.436;6.972;2023-03-03T08:20:49;96.57;;;42.80;;
2011;SDS011;1009;51.436;6.972;2023-03-03T08:23:17;94.80;;;43.63;;
2011;SDS011;1009;51.436;6.972;2023-03-03T08:25:45;87.87;;;42.77;;
2011;SDS011;1009;51.436;6.972;2023-03-03T08:28:13;80.33;;;40.87;;
2011;SDS011;1009;51.436;6.972;2023-03-03T08:30:40;86.00;;;41.90;;
2011;SDS011;1009;51.436;6.972;2023-03-03T08:33:07;82.07;;;40.10;;
2011;SDS011;1009;51.436;6.972;2023-03-03T08:35:34;77.27;;;38.93;;
2011;SDS011;1009;51.436;6.972;2023-03-03T08:38:02;76.73;;;38.70;;
2011;SDS011;1009;51.436;6.972;2023-03-03T08:40:30;76.53;;;38.00;;
2011;SDS011;1009;51.436;6.972;2023-03-03T08:42:56;73.07;;;36.17;;
2011;SDS011;1009;51.436;6.972;2023-03-03T08:45:23;74.70;;;34.63;;
2011;SDS011;1009;51.436;6.972;2023-03-03T08:47:51;70.97;;;35.10;;
2011;SDS011;1009;51.436;6.972;2023-03-03T08:50:18;70.27;;;34.33;;
2011;SDS011;1009;51.436;6.972;2023-03-03T08:52:45;72.27;;;35.00;;
2011;SDS011;1009;51.436;6.972;2023-03-03T08:55:13;63.23;;;32.40;;
2011;SDS011;1009;51.436;6.972;2023-03-03T08:57:40;67.73;;;32.50;;
2011;SDS011;1009;51.436;6.972;2023-03-03T09:00:07;72.30;;;34.37;;
2011;SDS011;1009;51.436;6.972;2023-03-03T09:02:36;74.87;;;35.53;;
2011;SDS011;1009;51.436;6.972;2023-03-03T09:05:03;67.20;;;34.37;;
2011;SDS011;1009;51.436;6.972;2023-03-03T09:07:31;67.37;;;33.57;;
2011;SDS011;1009;51.436;6.972;2023-03-03T09:09:57;62.47;;;34.90;;
2011;SDS011;1009;51.436;6.972;2023-03-03T09:12:27;69.43;;;33.90;;
2011;SDS011;1009;51.436;6.972;2023-03-03T09:14:56;67.57;;;33.27;;
2011;SDS011;1009;51.436;6.972;2023-03-03T09:17:26;73.97;;;34.67;;
2011;SDS011;1009;51.436;6.972;2023-03-03T09:19:57;70.53;;;37.03;;
2011;SDS011;1009;51.436;6.972;2023-03-03T09:22:35;65.73;;;34.43;;
2011;SDS011;1009;51.436;6.972;2023-03-03T09:25:05;70.57;;;35.53;;
2011;SDS011;1009;51.436;6.972;2023-03-03T09:27:44;67.07;;;34.40;;
2011;SDS011;1009;51.436;6.972;2023-03-03T09:30:14;70.50;;;35.43;;
2011;SDS011;1009;51.436;6.972;2023-03-03T09:33:00;61.83;;;33.47;;
2011;SDS011;1009;51.436;6.972;2023-03-03T09:35:42;67.83;;;32.10;;
2011;SDS011;1009;51.436;6.972;2023-03-03T09:38:13;63.97;;;33.20;;
2011;SDS011;1009;51.436;6.972;2023-03-03T09:40:53;66.07;;;33.40;;
2011;SDS011;1009;51.436;6.972;2023-03-03T09:43:33;71.10;;;35.43;;
2011;SDS011;1009;51.436;6.972;2023-03-03T09:46:04;77.03;;;35.93;;
2011;SDS011;1009;51.436;6.972;2023-03-03T09:48:45;59.90;;;32.67;;
2011;SDS011;1009;51.436;6.972;2023-03-03T09:51:24;65.97;;;33.17;;
2011;SDS011;1009;51.436;6.972;2023-03-03T09:54:07;72.73;;;33.30;;
2011;SDS011;1009;51.436;6.972;2023-03-03T09:56:47;58.10;;;30.53;;
2011;SDS011;1009;51.436;6.972;2023-03-03T09:59:27;63.37;;;31.97;;
2011;SDS011;1009;51.436;6.972;2023-03-03T10:02:10;58.53;;;29.67;;
2011;SDS011;1009;51.436;6.972;2023-03-03T10:05:01;56.07;;;30.50;;
2011;SDS011;1009;51.436;6.972;2023-03-03T10:07:38;61.03;;;30.30;;
2011;SDS011;1009;51.436;6.972;2023-03-03T10:10:15;54.93;;;29.40;;
2011;SDS011;1009;51.436;6.972;2023-03-03T10:13:00;58.73;;;27.90;;
2011;SDS011;1009;51.436;6.972;2023-03-03T10:15:38;60.33;;;30.00;;
2011;SDS011;1009;51.436;6.972;2023-03-03T10:18:20;56.13;;;28.60;;
2011;SDS011;1009;51.436;6.972;2023-03-03T10:20:57;55.13;;;29.23;;
2011;SDS011;1009;51.436;6.972;2023-03-03T10:23:38;58.67;;;31.47;;
2011;SDS011;1009;51.436;6.972;2023-03-03T10:26:20;68.20;;;32.67;;
2011;SDS011;1009;51.436;6.972;2023-03-03T10:29:06;66.43;;;30.80;;
2011;SDS011;1009;51.436;6.972;2023-03-03T10:31:44;58.80;;;29.87;;
2011;SDS011;1009;51.436;6.972;2023-03-03T10:34:26;57.13;;;29.90;;
2011;SDS011;1009;51.436;6.972;2023-03-03T10:37:05;51.23;;;28.00;;
2011;SDS011;1009;51.436;6.972;2023-03-03T10:39:43;57.40;;;30.07;;
2011;SDS011;1009;51.436;6.972;2023-03-03T10:42:33;63.77;;;29.40;;
2011;SDS011;1009;51.436;6.972;2023-03-03T10:45:16;51.60;;;26.87;;
2011;SDS011;1009;51.436;6.972;2023-03-03T10:48:09;62.53;;;27.40;;
2011;SDS011;1009;51.436;6.972;2023-03-03T10:50:53;44.80;;;25.17;;
2011;SDS011;1009;51.436;6.972;2023-03-03T10:53:28;50.00;;;26.17;;
2011;SDS011;1009;51.436;6.972;2023-03-03T10:56:14;59.10;;;28.17;;
2011;SDS011;1009;51.436;6.972;2023-03-03T10:58:58;48.67;;;25.20;;
2011;SDS011;1009;51.436;6.972;2023-03-03T11:01:41;47.33;;;26.40;;
2011;SDS011;1009;51.436;6.972;2023-03-03T11:04:27;51.90;;;27.10;;
2011;SDS011;1009;51.436;6.972;2023-03-03T11:07:13;51.83;;;26.97;;
2011;SDS011;1009;51.436;6.972;2023-03-03T11:10:04;55.33;;;29.37;;
2011;SDS011;1009;51.436;6.972;2023-03-03T11:12:46;50.80;;;29.43;;
2011;SDS011;1009;51.436;6.972;2023-03-03T11:21:02;49.53;;;28.50;;
2011;SDS011;1009;51.436;6.972;2023-03-03T11:23:44;48.77;;;28.60;;
2011;SDS011;1009;51.436;6.972;2023-03-03T11:26:41;49.70;;;27.57;;
2011;SDS011;1009;51.436;6.972;2023-03-03T11:29:36;44.47;;;26.67;;
2011;SDS011;1009;51.436;6.972;2023-03-03T11:32:26;49.77;;;27.97;;
2011;SDS011;1009;51.436;6.972;2023-03-03T11:35:05;47.03;;;27.23;;
2011;SDS011;1009;51.436;6.972;2023-03-03T11:37:52;46.77;;;26.23;;
2011;SDS011;1009;51.436;6.972;2023-03-03T11:40:33;52.30;;;28.77;;
2011;SDS011;1009;51.436;6.972;2023-03-03T11:43:12;48.13;;;27.87;;
2011;SDS011;1009;51.436;6.972;2023-03-03T11:45:47;43.03;;;24.87;;
2011;SDS011;1009;51.436;6.972;2023-03-03T11:48:19;43.00;;;26.60;;
2011;SDS011;1009;51.436;6.972;2023-03-03T11:50:56;47.23;;;26.20;;
2011;SDS011;1009;51.436;6.972;2023-03-03T11:53:31;48.63;;;26.30;;
2011;SDS011;1009;51.436;6.972;2023-03-03T11:56:13;46.40;;;26.43;;
2011;SDS011;1009;51.436;6.972;2023-03-03T11:58:48;48.97;;;24.97;;
2011;SDS011;1009;51.436;6.972;2023-03-03T12:01:25;45.10;;;24.17;;
2011;SDS011;1009;51.436;6.972;2023-03-03T12:04:01;48.03;;;26.60;;
2011;SDS011;1009;51.436;6.972;2023-03-03T12:06:34;36.63;;;23.73;;
2011;SDS011;1009;51.436;6.972;2023-03-03T12:09:18;39.83;;;24.10;;
2011;SDS011;1009;51.436;6.972;2023-03-03T12:11:56;47.63;;;25.30;;
2011;SDS011;1009;51.436;6.972;2023-03-03T12:14:36;42.07;;;24.97;;
2011;SDS011;1009;51.436;6.972;2023-03-03T12:17:12;42.70;;;26.53;;
2011;SDS011;1009;51.436;6.972;2023-03-03T12:19:50;41.17;;;26.63;;
2011;SDS011;1009;51.436;6.972;2023-03-03T12:22:30;44.13;;;26.47;;
2011;SDS011;1009;51.436;6.972;2023-03-03T12:27:48;46.40;;;28.23;;
2011;SDS011;1009;51.436;6.972;2023-03-03T12:30:23;53.00;;;30.03;;
2011;SDS011;1009;51.436;6.972;2023-03-03T12:33:08;54.93;;;31.83;;
2011;SDS011;1009;51.436;6.972;2023-03-03T12:35:49;63.20;;;32.63;;
2011;SDS011;1009;51.436;6.972;2023-03-03T12:38:27;53.97;;;33.20;;
2011;SDS011;1009;51.436;6.972;2023-03-03T12:41:05;59.37;;;33.70;;
2011;SDS011;1009;51.436;6.972;2023-03-03T12:43:41;59.90;;;32.00;;
2011;SDS011;1009;51.436;6.972;2023-03-03T12:46:20;68.17;;;35.27;;
2011;SDS011;1009;51.436;6.972;2023-03-03T12:48:53;59.17;;;34.00;;
2011;SDS011;1009;51.436;6.972;2023-03-03T12:51:25;60.47;;;34.10;;
2011;SDS011;1009;51.436;6.972;2023-03-03T12:57:18;61.10;;;34.13;;
2011;SDS011;1009;51.436;6.972;2023-03-03T12:59:51;59.03;;;33.00;;
2011;SDS011;1009;51.436;6.972;2023-03-03T13:02:32;56.63;;;32.97;;
2011;SDS011;1009;51.436;6.972;2023-03-03T13:05:09;63.43;;;35.40;;
2011;SDS011;1009;51.436;6.972;2023-03-03T13:07:50;54.30;;;31.80;;
2011;SDS011;1009;51.436;6.972;2023-03-03T13:10:41;59.10;;;30.60;;
2011;SDS011;1009;51.436;6.972;2023-03-03T13:13:15;59.60;;;32.10;;
2011;SDS011;1009;51.436;6.972;2023-03-03T13:15:47;50.90;;;30.27;;
2011;SDS011;1009;51.436;6.972;2023-03-03T13:18:24;50.57;;;31.43;;
2011;SDS011;1009;51.436;6.972;2023-03-03T13:21:00;50.47;;;32.87;;
2011;SDS011;1009;51.436;6.972;2023-03-03T13:23:34;54.80;;;31.73;;
2011;SDS011;1009;51.436;6.972;2023-03-03T13:26:14;55.03;;;35.97;;
2011;SDS011;1009;51.436;6.972;2023-03-03T13:28:48;54.03;;;34.37;;
2011;SDS011;1009;51.436;6.972;2023-03-03T13:31:31;54.40;;;31.60;;
2011;SDS011;1009;51.436;6.972;2023-03-03T13:34:01;58.53;;;33.43;;
2011;SDS011;1009;51.436;6.972;2023-03-03T13:36:29;57.67;;;34.77;;
2011;SDS011;1009;51.436;6.972;2023-03-03T13:39:02;52.80;;;34.07;;
2011;SDS011;1009;51.436;6.972;2023-03-03T13:41:40;54.00;;;34.50;;
2011;SDS011;1009;51.436;6.972;2023-03-03T13:44:16;52.97;;;30.97;;
2011;SDS011;1009;51.436;6.972;2023-03-03T13:46:52;44.33;;;28.83;;
2011;SDS011;1009;51.436;6.972;2023-03-03T13:49:31;39.40;;;25.87;;
2011;SDS011;1009;51.436;6.972;2023-03-03T13:52:08;40.60;;;25.03;;
2011;SDS011;1009;51.436;6.972;2023-03-03T13:54:45;39.37;;;26.30;;
2011;SDS011;1009;51.436;6.972;2023-03-03T13:57:23;47.90;;;28.50;;
2011;SDS011;1009;51.436;6.972;2023-03-03T14:00:04;38.43;;;24.93;;
2011;SDS011;1009;51.436;6.972;2023-03-03T14:02:46;40.37;;;25.97;;
2011;SDS011;1009;51.436;6.972;2023-03-03T14:05:23;35.10;;;21.27;;
2011;SDS011;1009;51.436;6.972;2023-03-03T14:07:58;36.90;;;23.40;;
2011;SDS011;1009;51.436;6.972;2023-03-03T14:10:33;36.33;;;20.50;;
2011;SDS011;1009;51.436;6.972;2023-03-03T14:13:06;43.07;;;24.17;;
2011;SDS011;1009;51.436;6.972;2023-03-03T14:15:43;35.53;;;20.77;;
2011;SDS011;1009;51.436;6.972;2023-03-03T14:18:19;37.33;;;24.00;;
2011;SDS011;1009;51.436;6.972;2023-03-03T14:20:54;37.07;;;21.23;;
2011;SDS011;1009;51.436;6.972;2023-03-03T14:23:24;35.17;;;19.80;;
2011;SDS011;1009;51.436;6.972;2023-03-03T14:26:00;38.00;;;21.33;;
2011;SDS011;1009;51.436;6.972;2023-03-03T14:28:37;30.60;;;18.10;;
2011;SDS011;1009;51.436;6.972;2023-03-03T14:31:10;36.13;;;20.43;;
2011;SDS011;1009;51.436;6.972;2023-03-03T14:33:41;37.23;;;19.23;;
2011;SDS011;1009;51.436;6.972;2023-03-03T14:36:11;32.40;;;17.67;;
2011;SDS011;1009;51.436;6.972;2023-03-03T14:38:44;33.27;;;17.17;;
2011;SDS011;1009;51.436;6.972;2023-03-03T14:41:33;28.93;;;17.07;;
2011;SDS011;1009;51.436;6.972;2023-03-03T14:47:02;29.03;;;16.53;;
2011;SDS011;1009;51.436;6.972;2023-03-03T14:49:41;27.77;;;17.17;;
2011;SDS011;1009;51.436;6.972;2023-03-03T14:52:10;31.90;;;18.33;;
2011;SDS011;1009;51.436;6.972;2023-03-03T14:54:46;29.47;;;17.47;;
2011;SDS011;1009;51.436;6.972;2023-03-03T14:57:16;33.33;;;20.47;;
2011;SDS011;1009;51.436;6.972;2023-03-03T14:59:54;29.07;;;17.47;;
2011;SDS011;1009;51.436;6.972;2023-03-03T15:02:28;27.17;;;15.57;;
2011;SDS011;1009;51.436;6.972;2023-03-03T15:07:56;30.47;;;17.57;;
2011;SDS011;1009;51.436;6.972;2023-03-03T15:10:33;29.37;;;17.73;;
2011;SDS011;1009;51.436;6.972;2023-03-03T15:13:08;31.43;;;18.17;;
2011;SDS011;1009;51.436;6.972;2023-03-03T15:15:59;31.03;;;19.73;;
2011;SDS011;1009;51.436;6.972;2023-03-03T15:18:30;32.97;;;19.13;;
2011;SDS011;1009;51.436;6.972;2023-03-03T15:20:59;28.33;;;18.10;;
2011;SDS011;1009;51.436;6.972;2023-03-03T15:23:42;30.17;;;19.57;;
2011;SDS011;1009;51.436;6.972;2023-03-03T15:26:18;29.77;;;19.13;;
2011;SDS011;1009;51.436;6.972;2023-03-03T15:28:53;30.43;;;18.47;;
2011;SDS011;1009;51.436;6.972;2023-03-03T15:31:29;31.87;;;19.83;;
2011;SDS011;1009;51.436;6.972;2023-03-03T15:34:12;32.77;;;19.33;;
2011;SDS011;1009;51.436;6.972;2023-03-03T15:36:50;31.43;;;19.57;;